Time;durP1;ratioP1;P1;durP2;ratioP2;P2;SDS_P1;SDS_P2;PMS_P1;PMS_P2;Temp;Humidity;BMP_temperature;BMP_pressure;BME280_temperature;BME280_humidity;BME280_pressure;Samples;Min_cycle;Max_cycle;Signal;HPM_P1;HPM_P2
2022/08/02 00:11:39;;;;;;;7.07;2.90;;;;;;;18.94;73.15;100264.72;30020820;29;97850;-61
2022/08/02 00:26:40;;;;;;;3.22;2.70;;;;;;;18.87;73.19;100268.50;30017913;29;124161;-61
2022/08/02 00:41:48;;;;;;;6.97;2.83;;;;;;;18.89;73.02;100272.66;30020250;29;97665;-62
2022/08/02 00:56:48;;;;;;;4.20;3.10;;;;;;;18.87;73.09;100280.09;30019230;29;96612;-62
2022/08/02 01:11:48;;;;;;;3.88;2.55;;;;;;;18.78;72.96;100278.75;30017872;29;96677;-62
2022/08/02 01:26:59;;;;;;;3.70;2.80;;;;;;;18.63;73.14;100286.34;30025501;29;98144;-61
2022/08/02 01:42:01;;;;;;;6.35;2.78;;;;;;;18.36;73.49;100284.72;30035416;29;97022;-62
2022/08/02 01:57:05;;;;;;;5.00;3.30;;;;;;;18.16;73.96;100268.69;30032934;29;97560;-61
2022/08/02 02:12:07;;;;;;;4.00;2.90;;;;;;;18.14;74.59;100281.56;30027788;29;97272;-61
2022/08/02 02:27:10;;;;;;;5.83;3.17;;;;;;;18.25;74.45;100291.63;30029906;29;97505;-61
2022/08/02 02:42:14;;;;;;;5.50;3.70;;;;;;;18.01;74.28;100287.03;30026145;29;97268;-61
2022/08/02 02:57:15;;;;;;;5.10;3.63;;;;;;;17.76;74.83;100290.47;30026218;29;97101;-63
2022/08/02 03:12:16;;;;;;;9.20;4.23;;;;;;;17.52;75.20;100290.16;30025458;29;97395;-62
2022/08/02 03:27:16;;;;;;;5.63;4.47;;;;;;;17.33;75.72;100301.81;30025502;29;97743;-61
2022/08/02 03:42:18;;;;;;;7.70;5.35;;;;;;;17.17;76.17;100303.94;30021943;29;97156;-61
2022/08/02 03:57:19;;;;;;;7.80;5.03;;;;;;;17.17;76.86;100325.47;30018197;29;97026;-62
2022/08/02 04:12:19;;;;;;;7.32;5.53;;;;;;;17.33;76.74;100347.59;30016685;29;97108;-62
2022/08/02 04:27:21;;;;;;;7.55;5.47;;;;;;;17.57;76.68;100379.22;30006859;29;97100;-62
2022/08/02 04:42:24;;;;;;;8.37;5.77;;;;;;;17.85;76.74;100388.03;30008941;29;97105;-62
2022/08/02 05:12:43;;;;;;;12.07;9.07;;;;;;;18.55;76.22;100407.00;30036323;29;96969;-62
2022/08/02 05:27:43;;;;;;;10.68;8.10;;;;;;;19.05;75.45;100424.31;30036704;29;96777;-62
2022/08/02 05:42:44;;;;;;;13.77;11.77;;;;;;;19.51;74.78;100425.75;30034656;29;96765;-62
2022/08/02 05:58:12;;;;;;;12.32;10.02;;;;;;;20.22;73.72;100447.00;30032972;29;96753;-61
2022/08/02 06:13:15;;;;;;;10.27;6.90;;;;;;;21.02;72.41;100458.59;30030251;29;97040;-62
2022/08/02 06:28:17;;;;;;;13.17;8.73;;;;;;;21.85;70.41;100459.44;30030588;29;97230;-62
2022/08/02 06:43:33;;;;;;;7.47;6.30;;;;;;;22.61;67.93;100472.91;30027608;29;96922;-62
2022/08/02 06:58:34;;;;;;;8.50;5.47;;;;;;;23.80;65.61;100474.81;30024959;29;97834;-62
2022/08/02 07:13:34;;;;;;;;;;;;;;;24.57;61.98;100485.81;30024140;29;97375;-62
2022/08/02 07:28:34;;;;;;;5.47;3.53;;;;;;;25.43;59.58;100470.53;30025533;29;96952;-63
2022/08/02 07:43:35;;;;;;;5.20;2.63;;;;;;;26.35;54.98;100473.72;30023072;29;96784;-62
2022/08/02 07:58:36;;;;;;;3.92;2.20;;;;;;;27.20;51.74;100466.13;30020980;29;97120;-63
2022/08/02 08:13:36;;;;;;;2.95;1.73;;;;;;;28.23;48.07;100473.28;30021256;29;97285;-62
2022/08/02 08:28:36;;;;;;;3.15;1.70;;;;;;;29.43;43.79;100477.63;30018952;29;101267;-62
2022/08/02 08:43:37;;;;;;;5.15;1.83;;;;;;;28.67;42.07;100489.75;30017732;29;97274;-61
2022/08/02 08:58:37;;;;;;;2.58;1.52;;;;;;;30.01;40.70;100495.97;30017214;29;96734;-61
2022/08/02 09:13:48;;;;;;;3.50;1.20;;;;;;;30.20;38.50;100490.50;30017668;29;96942;-61
2022/08/02 09:28:51;;;;;;;1.90;1.20;;;;;;;31.16;36.96;100483.88;30015257;29;96768;-61
2022/08/02 09:43:54;;;;;;;2.70;1.20;;;;;;;32.42;34.13;100484.72;30013433;29;96764;-61
2022/08/02 09:58:55;;;;;;;2.40;1.10;;;;;;;32.40;32.07;100487.78;30031322;29;97120;-61
2022/08/02 10:13:56;;;;;;;2.80;1.00;;;;;;;33.19;30.73;100490.34;30030706;29;97381;-61
2022/08/02 10:28:56;;;;;;;1.13;0.90;;;;;;;33.40;29.42;100480.41;30029102;29;96931;-61
2022/08/02 10:43:58;;;;;;;3.03;1.10;;;;;;;33.87;28.20;100468.09;30031883;29;97237;-62
2022/08/02 10:59:30;;;;;;;1.93;1.10;;;;;;;34.05;26.81;100475.31;30018400;29;97595;-60
2022/08/02 11:14:33;;;;;;;2.50;1.40;;;;;;;33.66;27.03;100465.91;30017455;29;97196;-60
2022/08/02 11:29:41;;;;;;;3.13;1.17;;;;;;;32.89;27.75;100448.63;30015436;29;96709;-59
2022/08/02 11:44:42;;;;;;;3.47;1.00;;;;;;;32.28;28.32;100440.66;30012445;29;97577;-59
2022/08/02 11:59:44;;;;;;;4.05;1.10;;;;;;;32.89;28.15;100443.91;30012086;29;97219;-60
2022/08/02 12:14:44;;;;;;;1.77;1.03;;;;;;;33.76;26.96;100450.19;30009929;29;97506;-60
2022/08/02 12:29:45;;;;;;;1.95;1.20;;;;;;;34.73;25.85;100440.84;30011072;29;97928;-61
2022/08/02 12:45:04;;;;;;;2.47;1.27;;;;;;;33.10;25.87;100429.59;30007918;29;96830;-60
2022/08/02 13:00:05;;;;;;;2.07;0.97;;;;;;;33.26;26.84;100427.28;30006384;29;97566;-60
2022/08/02 13:15:06;;;;;;;2.88;1.10;;;;;;;32.81;27.06;100416.28;30004558;29;97617;-60
2022/08/02 13:30:07;;;;;;;3.17;1.10;;;;;;;32.59;27.13;100398.59;30022436;29;97565;-60
2022/08/02 13:45:08;;;;;;;3.03;1.10;;;;;;;31.91;27.37;100372.88;30023584;29;97129;-59
2022/08/02 14:00:09;;;;;;;2.58;1.40;;;;;;;32.41;27.28;100361.81;30023823;29;98709;-59
2022/08/02 14:15:09;;;;;;;4.30;1.30;;;;;;;32.26;27.30;100356.66;30021014;29;96896;-59
2022/08/02 14:30:10;;;;;;;3.97;1.30;;;;;;;30.93;28.15;100348.09;30040567;28;97370;-59
2022/08/02 14:45:11;;;;;;;6.37;1.40;;;;;;;30.59;28.96;100335.50;30018723;29;97346;-59
2022/08/02 15:00:12;;;;;;;2.85;1.42;;;;;;;29.96;29.75;100340.28;30114260;29;96996;-59
2022/08/02 15:15:12;;;;;;;6.95;1.48;;;;;;;29.55;30.38;100335.34;30134082;28;97725;-59
2022/08/02 15:30:12;;;;;;;5.68;1.30;;;;;;;29.07;31.12;100327.13;30131164;28;97441;-58
2022/08/02 15:45:13;;;;;;;4.22;1.23;;;;;;;28.99;31.53;100321.19;30140077;28;96714;-60
2022/08/02 16:00:14;;;;;;;2.88;1.63;;;;;;;28.82;32.04;100332.56;30137449;29;97265;-59
2022/08/02 16:15:14;;;;;;;3.03;1.57;;;;;;;28.36;33.25;100325.56;30053619;28;96716;-60
2022/08/02 16:30:15;;;;;;;4.05;1.65;;;;;;;28.10;33.13;100315.91;30016007;29;96930;-59
2022/08/02 16:45:15;;;;;;;1.48;1.20;;;;;;;27.80;33.35;100306.75;30010827;29;97099;-60
2022/08/02 17:00:16;;;;;;;2.00;1.42;;;;;;;27.33;34.14;100300.66;30020021;29;97481;-60
2022/08/02 17:15:17;;;;;;;2.45;1.42;;;;;;;26.97;34.77;100312.53;30034525;29;96737;-60
2022/08/02 17:30:18;;;;;;;4.45;1.30;;;;;;;26.65;35.45;100321.03;30033553;29;96821;-60
2022/08/02 17:45:18;;;;;;;3.10;1.50;;;;;;;26.31;36.06;100321.56;30026204;29;98009;-59
2022/08/02 18:00:19;;;;;;;5.28;1.55;;;;;;;25.75;37.37;100333.19;30028659;29;100997;-59
2022/08/02 18:15:20;;;;;;;3.83;1.70;;;;;;;24.58;39.53;100333.03;30146344;28;97348;-60
2022/08/02 18:30:20;;;;;;;3.40;1.90;;;;;;;23.77;41.32;100345.56;30148980;28;97933;-59
2022/08/02 18:45:20;;;;;;;5.72;2.28;;;;;;;23.14;43.18;100353.19;30080317;29;97623;-60
2022/08/02 19:00:21;;;;;;;;;;;;;;;22.69;44.91;100363.09;30103847;29;97305;-61
2022/08/02 19:15:21;;;;;;;8.30;3.07;;;;;;;22.08;46.66;100363.59;30044314;28;96820;-59
2022/08/02 19:30:21;;;;;;;4.27;2.57;;;;;;;21.61;47.96;100372.72;30015587;29;105729;-60
2022/08/02 19:45:23;;;;;;;8.87;2.40;;;;;;;21.20;49.58;100366.41;30015001;29;97179;-59
2022/08/02 20:00:24;;;;;;;8.17;2.17;;;;;;;20.87;50.78;100372.38;30015408;29;96999;-60
2022/08/02 20:15:25;;;;;;;7.40;3.07;;;;;;;21.17;52.25;100374.16;30013688;29;96743;-59
2022/08/02 20:30:25;;;;;;;8.40;3.23;;;;;;;21.34;52.12;100369.69;30012064;29;97102;-59
2022/08/02 20:45:26;;;;;;;5.90;3.37;;;;;;;20.98;52.46;100381.56;30108024;29;97036;-59
2022/08/02 21:00:27;;;;;;;8.10;4.03;;;;;;;20.54;53.74;100382.66;30020178;29;97318;-59
2022/08/02 21:15:28;;;;;;;7.22;3.05;;;;;;;20.29;54.35;100380.94;30016534;29;97674;-59
2022/08/02 21:30:28;;;;;;;4.50;3.00;;;;;;;20.25;54.76;100379.75;30013712;29;97624;-59
2022/08/02 21:45:28;;;;;;;5.93;3.70;;;;;;;20.04;54.60;100381.09;30025018;29;96804;-60
2022/08/02 22:00:29;;;;;;;6.60;3.80;;;;;;;19.46;55.89;100385.06;30035500;29;102490;-60
2022/08/02 22:15:29;;;;;;;6.50;3.75;;;;;;;19.02;57.14;100385.06;30034225;29;96724;-59
2022/08/02 22:30:29;;;;;;;8.40;4.15;;;;;;;18.60;58.09;100399.09;30032870;29;96847;-60
2022/08/02 22:45:30;;;;;;;5.65;4.05;;;;;;;18.21;59.29;100403.66;30030576;29;97701;-59
2022/08/02 23:00:30;;;;;;;5.15;3.55;;;;;;;17.95;60.21;100401.94;30028402;29;97163;-59
2022/08/02 23:30:51;;;;;;;10.03;4.10;;;;;;;17.66;61.95;100387.91;30015841;29;96761;-59
2022/08/02 23:46:00;;;;;;;7.40;4.20;;;;;;;17.56;62.65;100387.50;30025290;29;97370;-59
